Decoded Metar for UKOO (ODESSA in UKRAINE) (IATA:ODS) | Meteo·Mobile Aviation Weather
aviador You're here:

UKOO Decoded Metar

ODESSA in UKRAINE
Report Time2018-12-15 18:30:00
UTC Time2018-12-15 18:41:34
Flight Rules vfr VFR
Wind070° at 14 kt
W.Decomp.*RWY 34: 1.0 kt HW 14.0 kt RCW
W.Rank070° ranks 12
Current wind is above 070° avg. (8.5)
Visibility9999 m
Phenomena:N/A
Clouds:Few 008 Hf
Scattered 040 Hf
Expected CloudBase > 400 ft AGL from Temp-Dew spread
CeilingNone
Temp00°C (ISA -15)
Dew Point-1°C (93% RH)
AAT-7.2°C
QNH1027 hPa
Density Alt-2,090 ft
Elevation115 ft
Report Wrong Elevation
Raw Report
UKOO 151830Z 07007MPS 040V110 9999 FEW008 SCT040 M00/M01 Q1027
R34/190058 NOSIG=

Extra information for UKOO:More info

Metar Taf Metar & Taf Last 4 Metars F.Rules Stats Wind Profile Meteogram Temp Stats Airport Information Weather charts Add Link Nearby VenuesMetar ALERT Operation Metar Decoded Social comments